sensor_id;sensor_type;location;lat;lon;timestamp;pressure;altitude;pressure_sealevel;temperature;humidity
30302;BME280;17111;52.130;5.028;2023-02-14T00:02:05;103595.88;;;17.07;48.02
30302;BME280;17111;52.130;5.028;2023-02-14T00:04:32;103595.03;;;17.06;47.72
30302;BME280;17111;52.130;5.028;2023-02-14T00:06:59;103595.97;;;17.05;48.29
30302;BME280;17111;52.130;5.028;2023-02-14T00:09:26;103596.91;;;17.04;48.51
30302;BME280;17111;52.130;5.028;2023-02-14T00:11:53;103597.00;;;17.02;48.14
30302;BME280;17111;52.130;5.028;2023-02-14T00:14:19;103588.09;;;17.02;48.27
30302;BME280;17111;52.130;5.028;2023-02-14T00:17:04;103587.22;;;17.01;48.03
30302;BME280;17111;52.130;5.028;2023-02-14T00:19:31;103587.28;;;17.00;48.02
30302;BME280;17111;52.130;5.028;2023-02-14T00:21:59;103586.44;;;16.99;48.35
30302;BME280;17111;52.130;5.028;2023-02-14T00:24:26;103586.44;;;16.99;47.95
30302;BME280;17111;52.130;5.028;2023-02-14T00:26:53;103587.47;;;16.97;47.81
30302;BME280;17111;52.130;5.028;2023-02-14T00:29:23;103582.97;;;16.97;47.89
30302;BME280;17111;52.130;5.028;2023-02-14T00:31:50;103592.84;;;16.97;47.92
30302;BME280;17111;52.130;5.028;2023-02-14T00:34:18;103579.50;;;16.95;48.13
30302;BME280;17111;52.130;5.028;2023-02-14T00:36:45;103588.50;;;16.94;48.36
30302;BME280;17111;52.130;5.028;2023-02-14T00:39:13;103583.13;;;16.94;48.13
30302;BME280;17111;52.130;5.028;2023-02-14T00:41:41;103583.22;;;16.93;47.76
30302;BME280;17111;52.130;5.028;2023-02-14T00:44:09;103575.25;;;16.91;48.36
30302;BME280;17111;52.130;5.028;2023-02-14T00:46:36;103578.78;;;16.92;48.58
30302;BME280;17111;52.130;5.028;2023-02-14T00:49:03;103581.56;;;16.90;48.03
30302;BME280;17111;52.130;5.028;2023-02-14T00:51:29;103569.97;;;16.90;48.37
30302;BME280;17111;52.130;5.028;2023-02-14T00:53:56;103565.56;;;16.89;48.15
30302;BME280;17111;52.130;5.028;2023-02-14T00:56:23;103569.13;;;16.89;48.64
30302;BME280;17111;52.130;5.028;2023-02-14T00:58:49;103568.25;;;16.89;48.72
30302;BME280;17111;52.130;5.028;2023-02-14T01:01:17;103563.91;;;16.86;47.96
30302;BME280;17111;52.130;5.028;2023-02-14T01:03:43;103564.78;;;16.87;48.64
30302;BME280;17111;52.130;5.028;2023-02-14T01:06:10;103553.19;;;16.86;47.61
30302;BME280;17111;52.130;5.028;2023-02-14T01:08:37;103559.56;;;16.84;47.98
30302;BME280;17111;52.130;5.028;2023-02-14T01:11:15;103560.53;;;16.83;47.97
30302;BME280;17111;52.130;5.028;2023-02-14T01:13:42;103559.56;;;16.84;48.49
30302;BME280;17111;52.130;5.028;2023-02-14T01:16:11;103558.78;;;16.82;48.55
30302;BME280;17111;52.130;5.028;2023-02-14T01:18:39;103554.38;;;16.81;47.93
30302;BME280;17111;52.130;5.028;2023-02-14T01:23:48;103556.19;;;16.80;48.00
30302;BME280;17111;52.130;5.028;2023-02-14T01:26:16;103546.41;;;16.79;48.66
30302;BME280;17111;52.130;5.028;2023-02-14T01:28:43;103547.38;;;16.78;48.40
30302;BME280;17111;52.130;5.028;2023-02-14T01:31:12;103541.22;;;16.76;48.62
30302;BME280;17111;52.130;5.028;2023-02-14T01:33:40;103538.53;;;16.76;48.63
30302;BME280;17111;52.130;5.028;2023-02-14T01:36:14;103538.63;;;16.74;47.91
30302;BME280;17111;52.130;5.028;2023-02-14T01:38:41;103541.28;;;16.74;47.85
30302;BME280;17111;52.130;5.028;2023-02-14T01:41:08;103539.56;;;16.73;47.91
30302;BME280;17111;52.130;5.028;2023-02-14T01:44:02;103539.69;;;16.70;48.38
30302;BME280;17111;52.130;5.028;2023-02-14T01:46:30;103538.84;;;16.70;47.87
30302;BME280;17111;52.130;5.028;2023-02-14T01:49:02;103534.25;;;16.72;48.18
30302;BME280;17111;52.130;5.028;2023-02-14T01:51:31;103538.75;;;16.71;48.45
30302;BME280;17111;52.130;5.028;2023-02-14T01:54:00;103538.84;;;16.70;48.07
30302;BME280;17111;52.130;5.028;2023-02-14T01:56:33;103541.59;;;16.68;48.01
30302;BME280;17111;52.130;5.028;2023-02-14T01:59:01;103539.84;;;16.67;47.87
30302;BME280;17111;52.130;5.028;2023-02-14T02:01:30;103539.84;;;16.67;48.37
30302;BME280;17111;52.130;5.028;2023-02-14T02:04:00;103543.47;;;16.66;48.63
30302;BME280;17111;52.130;5.028;2023-02-14T02:06:36;103536.44;;;16.64;47.90
30302;BME280;17111;52.130;5.028;2023-02-14T02:11:40;103538.25;;;16.63;48.24
30302;BME280;17111;52.130;5.028;2023-02-14T02:14:13;103539.22;;;16.62;48.19
30302;BME280;17111;52.130;5.028;2023-02-14T02:16:51;103531.34;;;16.59;48.17
30302;BME280;17111;52.130;5.028;2023-02-14T02:19:35;103540.94;;;16.63;48.29
30302;BME280;17111;52.130;5.028;2023-02-14T02:25:34;103534.00;;;16.59;48.60
30302;BME280;17111;52.130;5.028;2023-02-14T02:30:44;103541.34;;;16.56;48.20
30302;BME280;17111;52.130;5.028;2023-02-14T02:41:49;103528.19;;;16.51;48.74
30302;BME280;17111;52.130;5.028;2023-02-14T02:44:45;103532.59;;;16.52;48.95
30302;BME280;17111;52.130;5.028;2023-02-14T02:50:04;103529.91;;;16.52;48.15
30302;BME280;17111;52.130;5.028;2023-02-14T02:53:06;103530.00;;;16.50;48.52
30302;BME280;17111;52.130;5.028;2023-02-14T02:58:45;103532.78;;;16.49;48.87
30302;BME280;17111;52.130;5.028;2023-02-14T03:01:20;103532.78;;;16.49;48.04
30302;BME280;17111;52.130;5.028;2023-02-14T03:03:52;103522.13;;;16.47;47.94
30302;BME280;17111;52.130;5.028;2023-02-14T03:06:39;103521.25;;;16.47;48.83
30302;BME280;17111;52.130;5.028;2023-02-14T03:14:37;103519.69;;;16.43;48.16
30302;BME280;17111;52.130;5.028;2023-02-14T03:17:21;103517.81;;;16.45;48.70
30302;BME280;17111;52.130;5.028;2023-02-14T03:20:13;103517.09;;;16.41;49.11
30302;BME280;17111;52.130;5.028;2023-02-14T03:23:13;103515.38;;;16.40;48.49
30302;BME280;17111;52.130;5.028;2023-02-14T03:25:52;103509.06;;;16.41;48.63
30302;BME280;17111;52.130;5.028;2023-02-14T03:36:04;103512.69;;;16.40;48.11
30302;BME280;17111;52.130;5.028;2023-02-14T03:38:40;103517.16;;;16.40;48.16
30302;BME280;17111;52.130;5.028;2023-02-14T03:41:18;103511.78;;;16.40;48.23
30302;BME280;17111;52.130;5.028;2023-02-14T03:44:01;103511.78;;;16.40;48.19
30302;BME280;17111;52.130;5.028;2023-02-14T03:46:41;103517.00;;;16.43;48.84
30302;BME280;17111;52.130;5.028;2023-02-14T03:49:13;103513.38;;;16.44;47.90
30302;BME280;17111;52.130;5.028;2023-02-14T03:51:45;103512.50;;;16.43;47.93
30302;BME280;17111;52.130;5.028;2023-02-14T03:54:14;103507.16;;;16.43;48.22
30302;BME280;17111;52.130;5.028;2023-02-14T03:56:47;103512.50;;;16.43;48.53
30302;BME280;17111;52.130;5.028;2023-02-14T03:59:25;103507.16;;;16.43;47.80
30302;BME280;17111;52.130;5.028;2023-02-14T04:01:56;103505.34;;;16.44;48.49
30302;BME280;17111;52.130;5.028;2023-02-14T04:04:30;103500.88;;;16.44;48.66
30302;BME280;17111;52.130;5.028;2023-02-14T04:06:58;103503.47;;;16.46;48.15
30302;BME280;17111;52.130;5.028;2023-02-14T04:09:25;103514.19;;;16.46;47.80
30302;BME280;17111;52.130;5.028;2023-02-14T04:11:51;103510.63;;;16.45;48.47
30302;BME280;17111;52.130;5.028;2023-02-14T04:14:18;103518.56;;;16.47;47.81
30302;BME280;17111;52.130;5.028;2023-02-14T04:16:44;103517.72;;;16.46;47.90
30302;BME280;17111;52.130;5.028;2023-02-14T04:19:29;103515.03;;;16.46;48.30
30302;BME280;17111;52.130;5.028;2023-02-14T04:21:56;103508.81;;;16.46;47.95
30302;BME280;17111;52.130;5.028;2023-02-14T04:24:22;103503.47;;;16.46;47.86
30302;BME280;17111;52.130;5.028;2023-02-14T04:26:49;103514.19;;;16.46;48.35
30302;BME280;17111;52.130;5.028;2023-02-14T04:29:41;103506.16;;;16.46;47.77
30302;BME280;17111;52.130;5.028;2023-02-14T04:32:10;103507.88;;;16.47;48.11
30302;BME280;17111;52.130;5.028;2023-02-14T04:34:38;103504.31;;;16.46;48.60
30302;BME280;17111;52.130;5.028;2023-02-14T04:37:05;103506.16;;;16.46;48.05
30302;BME280;17111;52.130;5.028;2023-02-14T04:39:32;103500.78;;;16.46;48.30
30302;BME280;17111;52.130;5.028;2023-02-14T04:41:59;103497.25;;;16.45;48.33
30302;BME280;17111;52.130;5.028;2023-02-14T04:44:25;103508.81;;;16.46;47.69
30302;BME280;17111;52.130;5.028;2023-02-14T04:46:52;103497.25;;;16.45;48.28
30302;BME280;17111;52.130;5.028;2023-02-14T04:49:19;103495.44;;;16.46;47.92
30302;BME280;17111;52.130;5.028;2023-02-14T04:51:45;103494.56;;;16.45;48.24
30302;BME280;17111;52.130;5.028;2023-02-14T04:54:12;103490.94;;;16.46;48.23
30302;BME280;17111;52.130;5.028;2023-02-14T04:56:39;103493.63;;;16.46;47.79
30302;BME280;17111;52.130;5.028;2023-02-14T04:59:05;103495.44;;;16.46;48.23
30302;BME280;17111;52.130;5.028;2023-02-14T05:01:32;103491.03;;;16.45;47.88
30302;BME280;17111;52.130;5.028;2023-02-14T05:03:58;103493.78;;;16.43;47.70
30302;BME280;17111;52.130;5.028;2023-02-14T05:06:25;103492.91;;;16.43;47.73
30302;BME280;17111;52.130;5.028;2023-02-14T05:08:52;103486.78;;;16.41;48.23
30302;BME280;17111;52.130;5.028;2023-02-14T05:11:18;103489.47;;;16.41;47.65
30302;BME280;17111;52.130;5.028;2023-02-14T05:13:45;103493.06;;;16.40;48.37
30302;BME280;17111;52.130;5.028;2023-02-14T05:16:11;103497.63;;;16.38;48.60
30302;BME280;17111;52.130;5.028;2023-02-14T05:18:38;103499.50;;;16.36;48.64
30302;BME280;17111;52.130;5.028;2023-02-14T05:21:05;103498.66;;;16.35;48.35
30302;BME280;17111;52.130;5.028;2023-02-14T05:23:31;103501.41;;;16.34;48.68
30302;BME280;17111;52.130;5.028;2023-02-14T05:25:58;103493.38;;;16.34;48.29
30302;BME280;17111;52.130;5.028;2023-02-14T05:28:25;103491.66;;;16.33;48.24
30302;BME280;17111;52.130;5.028;2023-02-14T05:30:51;103493.44;;;16.32;47.85
30302;BME280;17111;52.130;5.028;2023-02-14T05:33:18;103486.47;;;16.29;48.53
30302;BME280;17111;52.130;5.028;2023-02-14T05:35:44;103498.13;;;16.28;48.42
30302;BME280;17111;52.130;5.028;2023-02-14T05:38:11;103498.13;;;16.28;47.97
30302;BME280;17111;52.130;5.028;2023-02-14T05:40:39;103505.25;;;16.28;47.59
30302;BME280;17111;52.130;5.028;2023-02-14T05:43:06;103498.16;;;16.27;47.95
30302;BME280;17111;52.130;5.028;2023-02-14T05:45:33;103504.47;;;16.26;48.38
30302;BME280;17111;52.130;5.028;2023-02-14T05:47:59;103496.44;;;16.26;48.44
30302;BME280;17111;52.130;5.028;2023-02-14T05:50:27;103496.44;;;16.26;48.61
30302;BME280;17111;52.130;5.028;2023-02-14T05:52:54;103495.63;;;16.24;47.94
30302;BME280;17111;52.130;5.028;2023-02-14T05:55:21;103498.31;;;16.24;48.48
30302;BME280;17111;52.130;5.028;2023-02-14T05:57:48;103488.56;;;16.23;48.38
30302;BME280;17111;52.130;5.028;2023-02-14T06:00:15;103485.03;;;16.22;47.97
30302;BME280;17111;52.130;5.028;2023-02-14T06:02:41;103489.50;;;16.22;48.81
30302;BME280;17111;52.130;5.028;2023-02-14T06:05:08;103486.94;;;16.20;48.04
30302;BME280;17111;52.130;5.028;2023-02-14T06:07:35;103487.84;;;16.19;48.69
30302;BME280;17111;52.130;5.028;2023-02-14T06:10:02;103483.44;;;16.18;47.67
30302;BME280;17111;52.130;5.028;2023-02-14T06:12:28;103485.25;;;16.18;48.50
30302;BME280;17111;52.130;5.028;2023-02-14T06:14:55;103485.25;;;16.18;48.62
30302;BME280;17111;52.130;5.028;2023-02-14T06:17:21;103482.69;;;16.16;47.97
30302;BME280;17111;52.130;5.028;2023-02-14T06:19:48;103491.63;;;16.15;47.98
30302;BME280;17111;52.130;5.028;2023-02-14T06:22:14;103488.94;;;16.15;48.64
30302;BME280;17111;52.130;5.028;2023-02-14T06:24:41;103502.31;;;16.15;48.71
30302;BME280;17111;52.130;5.028;2023-02-14T06:27:08;103500.59;;;16.14;48.83
30302;BME280;17111;52.130;5.028;2023-02-14T06:29:34;103499.75;;;16.14;48.60
30302;BME280;17111;52.130;5.028;2023-02-14T06:32:01;103499.75;;;16.14;48.72
30302;BME280;17111;52.130;5.028;2023-02-14T06:34:32;103499.75;;;16.14;47.93
30302;BME280;17111;52.130;5.028;2023-02-14T06:36:59;103503.38;;;16.13;48.00
30302;BME280;17111;52.130;5.028;2023-02-14T06:39:26;103507.91;;;16.11;48.06
30302;BME280;17111;52.130;5.028;2023-02-14T06:41:52;103503.50;;;16.10;47.97
30302;BME280;17111;52.130;5.028;2023-02-14T06:44:19;103506.09;;;16.11;48.71
30302;BME280;17111;52.130;5.028;2023-02-14T06:46:46;103503.50;;;16.10;48.71
30302;BME280;17111;52.130;5.028;2023-02-14T06:49:12;103500.91;;;16.08;48.07
30302;BME280;17111;52.130;5.028;2023-02-14T06:51:39;103497.44;;;16.06;48.56
30302;BME280;17111;52.130;5.028;2023-02-14T06:54:06;103497.44;;;16.06;48.61
30302;BME280;17111;52.130;5.028;2023-02-14T06:56:32;103493.03;;;16.05;48.46
30302;BME280;17111;52.130;5.028;2023-02-14T06:58:59;103492.19;;;16.04;47.55
30302;BME280;17111;52.130;5.028;2023-02-14T07:01:25;103492.19;;;16.04;47.88
30302;BME280;17111;52.130;5.028;2023-02-14T07:03:52;103487.84;;;16.02;48.15
30302;BME280;17111;52.130;5.028;2023-02-14T07:06:18;103483.34;;;16.02;48.85
30302;BME280;17111;52.130;5.028;2023-02-14T07:08:45;103492.31;;;16.01;48.61
30302;BME280;17111;52.130;5.028;2023-02-14T07:11:11;103486.09;;;16.01;48.58
30302;BME280;17111;52.130;5.028;2023-02-14T07:13:38;103485.25;;;16.00;48.55
30302;BME280;17111;52.130;5.028;2023-02-14T07:16:05;103484.28;;;16.01;48.54
30302;BME280;17111;52.130;5.028;2023-02-14T07:18:31;103481.66;;;16.00;47.83
30302;BME280;17111;52.130;5.028;2023-02-14T07:20:58;103487.13;;;15.98;47.89
30302;BME280;17111;52.130;5.028;2023-02-14T07:23:25;103486.25;;;15.98;47.89
30302;BME280;17111;52.130;5.028;2023-02-14T07:25:52;103488.94;;;15.98;47.85
30302;BME280;17111;52.130;5.028;2023-02-14T07:28:20;103496.94;;;15.98;48.00
30302;BME280;17111;52.130;5.028;2023-02-14T07:30:46;103501.44;;;15.97;48.15
30302;BME280;17111;52.130;5.028;2023-02-14T07:33:13;103496.09;;;15.97;47.59
30302;BME280;17111;52.130;5.028;2023-02-14T07:35:40;103501.44;;;15.97;48.74
30302;BME280;17111;52.130;5.028;2023-02-14T07:38:07;103493.47;;;15.96;48.23
30302;BME280;17111;52.130;5.028;2023-02-14T07:40:33;103502.31;;;15.98;48.10
30302;BME280;17111;52.130;5.028;2023-02-14T07:43:00;103498.75;;;15.97;48.21
30302;BME280;17111;52.130;5.028;2023-02-14T07:45:26;103506.78;;;15.97;47.94
30302;BME280;17111;52.130;5.028;2023-02-14T07:47:54;103508.59;;;15.97;48.28
30302;BME280;17111;52.130;5.028;2023-02-14T07:50:22;103515.69;;;15.98;48.56
30302;BME280;17111;52.130;5.028;2023-02-14T07:52:48;103512.06;;;15.99;47.96
30302;BME280;17111;52.130;5.028;2023-02-14T07:55:15;103512.91;;;15.99;47.70
30302;BME280;17111;52.130;5.028;2023-02-14T07:57:42;103511.19;;;15.98;47.63
30302;BME280;17111;52.130;5.028;2023-02-14T08:00:09;103511.19;;;15.98;47.60
30302;BME280;17111;52.130;5.028;2023-02-14T08:02:35;103511.09;;;16.00;47.71
30302;BME280;17111;52.130;5.028;2023-02-14T08:05:02;103505.69;;;16.01;47.63
30302;BME280;17111;52.130;5.028;2023-02-14T08:07:28;103506.56;;;16.02;48.53
30302;BME280;17111;52.130;5.028;2023-02-14T08:09:55;103498.53;;;16.02;47.81
30302;BME280;17111;52.130;5.028;2023-02-14T08:12:22;103501.13;;;16.03;48.44
30302;BME280;17111;52.130;5.028;2023-02-14T08:15:07;103506.47;;;16.03;48.55
30302;BME280;17111;52.130;5.028;2023-02-14T08:17:52;103501.94;;;16.06;47.41
30302;BME280;17111;52.130;5.028;2023-02-14T08:20:19;103511.69;;;16.07;47.81
30302;BME280;17111;52.130;5.028;2023-02-14T08:22:45;103511.63;;;16.08;48.27
30302;BME280;17111;52.130;5.028;2023-02-14T08:25:12;103511.44;;;16.11;48.41
30302;BME280;17111;52.130;5.028;2023-02-14T08:27:38;103515.69;;;16.15;48.33
30302;BME280;17111;52.130;5.028;2023-02-14T08:30:06;103518.31;;;16.17;48.25
30302;BME280;17111;52.130;5.028;2023-02-14T08:32:34;103512.78;;;16.20;48.35
30302;BME280;17111;52.130;5.028;2023-02-14T08:35:00;103509.97;;;16.23;48.08
30302;BME280;17111;52.130;5.028;2023-02-14T08:37:27;103508.97;;;16.25;47.50
30302;BME280;17111;52.130;5.028;2023-02-14T08:39:53;103512.34;;;16.29;48.27
30302;BME280;17111;52.130;5.028;2023-02-14T08:42:20;103511.31;;;16.32;47.53
30302;BME280;17111;52.130;5.028;2023-02-14T08:44:46;103515.56;;;16.36;48.54
30302;BME280;17111;52.130;5.028;2023-02-14T08:47:13;103509.22;;;16.38;48.47
30302;BME280;17111;52.130;5.028;2023-02-14T08:49:40;103512.59;;;16.42;47.23
30302;BME280;17111;52.130;5.028;2023-02-14T08:52:06;103504.41;;;16.45;47.72
30302;BME280;17111;52.130;5.028;2023-02-14T08:54:33;103502.47;;;16.48;47.50
30302;BME280;17111;52.130;5.028;2023-02-14T08:56:59;103510.31;;;16.51;47.70
30302;BME280;17111;52.130;5.028;2023-02-14T08:59:28;103511.03;;;16.55;47.02
30302;BME280;17111;52.130;5.028;2023-02-14T09:01:55;103508.97;;;16.60;47.30
30302;BME280;17111;52.130;5.028;2023-02-14T09:04:21;103506.13;;;16.63;47.28
30302;BME280;17111;52.130;5.028;2023-02-14T09:06:48;103506.78;;;16.68;47.90
30302;BME280;17111;52.130;5.028;2023-02-14T09:09:15;103508.34;;;16.72;47.31
30302;BME280;17111;52.130;5.028;2023-02-14T09:11:42;103501.03;;;16.76;47.57
30302;BME280;17111;52.130;5.028;2023-02-14T09:14:09;103495.47;;;16.81;46.74
30302;BME280;17111;52.130;5.028;2023-02-14T09:16:36;103497.97;;;16.84;46.85
30302;BME280;17111;52.130;5.028;2023-02-14T09:19:02;103508.50;;;16.87;47.44
30302;BME280;17111;52.130;5.028;2023-02-14T09:21:29;103496.69;;;16.91;46.81
30302;BME280;17111;52.130;5.028;2023-02-14T09:23:56;103496.53;;;16.94;47.28
30302;BME280;17111;52.130;5.028;2023-02-14T09:26:22;103499.91;;;16.97;46.54
30302;BME280;17111;52.130;5.028;2023-02-14T09:28:49;103491.72;;;17.00;47.14
30302;BME280;17111;52.130;5.028;2023-02-14T09:31:18;103483.50;;;17.03;46.83
30302;BME280;17111;52.130;5.028;2023-02-14T09:33:46;103483.25;;;17.08;46.85
30302;BME280;17111;52.130;5.028;2023-02-14T09:36:31;103485.69;;;17.13;47.02
30302;BME280;17111;52.130;5.028;2023-02-14T09:39:17;103485.44;;;17.17;47.20
30302;BME280;17111;52.130;5.028;2023-02-14T09:42:36;103480.78;;;17.21;47.18
30302;BME280;17111;52.130;5.028;2023-02-14T09:44:48;103480.44;;;17.27;47.40
30302;BME280;17111;52.130;5.028;2023-02-14T09:49:50;103487.81;;;17.39;47.30
30302;BME280;17111;52.130;5.028;2023-02-14T09:52:20;103486.63;;;17.45;46.93
30302;BME280;17111;52.130;5.028;2023-02-14T09:54:54;103489.91;;;17.50;47.23
30302;BME280;17111;52.130;5.028;2023-02-14T09:57:55;103474.41;;;17.55;47.27
30302;BME280;17111;52.130;5.028;2023-02-14T10:00:37;103475.81;;;17.62;47.50
30302;BME280;17111;52.130;5.028;2023-02-14T10:06:37;103481.44;;;17.73;47.24
30302;BME280;17111;52.130;5.028;2023-02-14T10:09:35;103486.47;;;17.80;46.91
30302;BME280;17111;52.130;5.028;2023-02-14T10:12:15;103492.34;;;17.86;47.15
30302;BME280;17111;52.130;5.028;2023-02-14T10:14:46;103488.53;;;17.90;47.07
30302;BME280;17111;52.130;5.028;2023-02-14T10:17:18;103478.41;;;17.95;47.38
30302;BME280;17111;52.130;5.028;2023-02-14T10:19:58;103486.19;;;18.00;47.43
30302;BME280;17111;52.130;5.028;2023-02-14T10:22:39;103480.47;;;18.06;47.12
30302;BME280;17111;52.130;5.028;2023-02-14T10:25:20;103482.03;;;18.10;47.21
30302;BME280;17111;52.130;5.028;2023-02-14T10:27:47;103480.03;;;18.14;47.09
30302;BME280;17111;52.130;5.028;2023-02-14T10:30:17;103470.84;;;18.18;47.40
30302;BME280;17111;52.130;5.028;2023-02-14T10:32:47;103465.25;;;18.21;46.93
30302;BME280;17111;52.130;5.028;2023-02-14T10:42:09;103465.41;;;18.34;46.92
30302;BME280;17111;52.130;5.028;2023-02-14T10:50:02;103462.19;;;18.43;46.65
30302;BME280;17111;52.130;5.028;2023-02-14T10:55:11;103461.78;;;18.49;47.00
30302;BME280;17111;52.130;5.028;2023-02-14T10:57:57;103461.59;;;18.52;46.96
30302;BME280;17111;52.130;5.028;2023-02-14T11:01:32;103465.09;;;18.54;46.74
30302;BME280;17111;52.130;5.028;2023-02-14T11:03:43;103465.75;;;18.58;46.90
30302;BME280;17111;52.130;5.028;2023-02-14T11:06:15;103470.94;;;18.61;46.67
30302;BME280;17111;52.130;5.028;2023-02-14T11:08:41;103463.72;;;18.61;46.89
30302;BME280;17111;52.130;5.028;2023-02-14T11:13:41;103458.97;;;18.66;46.71
30302;BME280;17111;52.130;5.028;2023-02-14T11:16:18;103455.31;;;18.67;46.14
30302;BME280;17111;52.130;5.028;2023-02-14T11:21:42;103456.88;;;18.71;46.39
30302;BME280;17111;52.130;5.028;2023-02-14T11:24:31;103446.03;;;18.73;46.44
30302;BME280;17111;52.130;5.028;2023-02-14T11:27:03;103451.31;;;18.74;46.34
30302;BME280;17111;52.130;5.028;2023-02-14T11:29:41;103447.56;;;18.77;46.26
30302;BME280;17111;52.130;5.028;2023-02-14T11:32:19;103442.13;;;18.79;46.30
30302;BME280;17111;52.130;5.028;2023-02-14T11:34:58;103441.16;;;18.80;46.46
30302;BME280;17111;52.130;5.028;2023-02-14T11:37:31;103433.88;;;18.82;46.34
30302;BME280;17111;52.130;5.028;2023-02-14T11:40:00;103432.91;;;18.83;46.22
30302;BME280;17111;52.130;5.028;2023-02-14T11:42:45;103424.84;;;18.83;45.97
30302;BME280;17111;52.130;5.028;2023-02-14T11:45:43;103426.44;;;18.85;46.46
30302;BME280;17111;52.130;5.028;2023-02-14T11:53:50;103410.94;;;18.90;46.24
30302;BME280;17111;52.130;5.028;2023-02-14T11:56:22;103405.34;;;18.93;46.17
30302;BME280;17111;52.130;5.028;2023-02-14T12:01:31;103398.06;;;18.95;46.21
30302;BME280;17111;52.130;5.028;2023-02-14T12:04:02;103384.50;;;18.97;46.40
30302;BME280;17111;52.130;5.028;2023-02-14T12:06:31;103380.88;;;18.98;46.53
30302;BME280;17111;52.130;5.028;2023-02-14T12:11:58;103379.72;;;19.02;46.52
30302;BME280;17111;52.130;5.028;2023-02-14T12:14:33;103369.72;;;19.04;46.16
30302;BME280;17111;52.130;5.028;2023-02-14T12:17:15;103370.50;;;19.06;46.61
30302;BME280;17111;52.130;5.028;2023-02-14T12:22:21;103366.66;;;19.10;46.49
30302;BME280;17111;52.130;5.028;2023-02-14T12:30:20;103352.78;;;19.16;45.99
30302;BME280;17111;52.130;5.028;2023-02-14T12:32:52;103356.25;;;19.18;46.41
30302;BME280;17111;52.130;5.028;2023-02-14T12:35:21;103351.63;;;19.20;45.71
30302;BME280;17111;52.130;5.028;2023-02-14T12:43:19;103346.72;;;19.27;46.42
30302;BME280;17111;52.130;5.028;2023-02-14T13:05:00;103308.06;;;19.42;45.89
30302;BME280;17111;52.130;5.028;2023-02-14T13:07:40;103305.16;;;19.45;46.10
30302;BME280;17111;52.130;5.028;2023-02-14T13:18:45;103296.56;;;19.53;45.77
30302;BME280;17111;52.130;5.028;2023-02-14T13:21:21;103286.56;;;19.55;45.43
30302;BME280;17111;52.130;5.028;2023-02-14T13:23:56;103289.06;;;19.58;45.83
30302;BME280;17111;52.130;5.028;2023-02-14T13:26:29;103288.09;;;19.59;45.83
30302;BME280;17111;52.130;5.028;2023-02-14T13:29:08;103295.19;;;19.60;45.90
30302;BME280;17111;52.130;5.028;2023-02-14T13:31:37;103287.94;;;19.62;45.52
30302;BME280;17111;52.130;5.028;2023-02-14T13:36:47;103276.94;;;19.65;45.77
30302;BME280;17111;52.130;5.028;2023-02-14T13:41:59;103265.09;;;19.68;45.07
30302;BME280;17111;52.130;5.028;2023-02-14T13:44:55;103259.84;;;19.66;45.21
30302;BME280;17111;52.130;5.028;2023-02-14T13:47:24;103260.50;;;19.70;44.89
30302;BME280;17111;52.130;5.028;2023-02-14T13:49:55;103257.81;;;19.70;45.06
30302;BME280;17111;52.130;5.028;2023-02-14T13:52:45;103261.34;;;19.70;45.39
30302;BME280;17111;52.130;5.028;2023-02-14T13:55:16;103264.78;;;19.72;44.69
30302;BME280;17111;52.130;5.028;2023-02-14T13:57:44;103263.81;;;19.73;45.53
30302;BME280;17111;52.130;5.028;2023-02-14T14:00:27;103265.63;;;19.73;45.25
30302;BME280;17111;52.130;5.028;2023-02-14T14:03:00;103264.56;;;19.76;44.68
30302;BME280;17111;52.130;5.028;2023-02-14T14:10:54;103251.97;;;19.76;44.91
30302;BME280;17111;52.130;5.028;2023-02-14T14:18:55;103242.94;;;19.77;44.18
30302;BME280;17111;52.130;5.028;2023-02-14T14:24:34;103242.00;;;19.78;44.38
30302;BME280;17111;52.130;5.028;2023-02-14T14:27:21;103237.56;;;19.77;44.21
30302;BME280;17111;52.130;5.028;2023-02-14T14:29:52;103230.34;;;19.78;44.17
30302;BME280;17111;52.130;5.028;2023-02-14T14:32:27;103238.31;;;19.79;44.48
30302;BME280;17111;52.130;5.028;2023-02-14T14:35:03;103233.78;;;19.80;43.83
30302;BME280;17111;52.130;5.028;2023-02-14T14:37:33;103240.91;;;19.81;44.08
30302;BME280;17111;52.130;5.028;2023-02-14T14:40:03;103241.00;;;19.79;44.21
30302;BME280;17111;52.130;5.028;2023-02-14T14:42:35;103241.88;;;19.80;43.77
30302;BME280;17111;52.130;5.028;2023-02-14T14:45:23;103243.72;;;19.79;43.53
30302;BME280;17111;52.130;5.028;2023-02-14T14:47:53;103243.59;;;19.81;44.44
30302;BME280;17111;52.130;5.028;2023-02-14T14:50:26;103238.19;;;19.81;44.18
30302;BME280;17111;52.130;5.028;2023-02-14T14:53:20;103246.28;;;19.81;43.45
30302;BME280;17111;52.130;5.028;2023-02-14T14:55:46;103246.28;;;19.81;44.11
30302;BME280;17111;52.130;5.028;2023-02-14T14:58:34;103235.44;;;19.82;43.56
30302;BME280;17111;52.130;5.028;2023-02-14T15:01:02;103234.44;;;19.83;44.17
30302;BME280;17111;52.130;5.028;2023-02-14T15:03:29;103233.69;;;19.81;43.95
30302;BME280;17111;52.130;5.028;2023-02-14T15:06:15;103233.69;;;19.81;43.74
30302;BME280;17111;52.130;5.028;2023-02-14T15:08:43;103238.13;;;19.82;43.62
30302;BME280;17111;52.130;5.028;2023-02-14T15:11:25;103232.81;;;19.81;43.68
30302;BME280;17111;52.130;5.028;2023-02-14T15:14:17;103237.22;;;19.82;43.95
30302;BME280;17111;52.130;5.028;2023-02-14T15:17:02;103233.69;;;19.81;44.17
30302;BME280;17111;52.130;5.028;2023-02-14T15:22:05;103229.16;;;19.82;43.57
30302;BME280;17111;52.130;5.028;2023-02-14T15:24:36;103232.72;;;19.82;43.68
30302;BME280;17111;52.130;5.028;2023-02-14T15:27:03;103226.38;;;19.83;43.75
30302;BME280;17111;52.130;5.028;2023-02-14T15:29:31;103229.91;;;19.84;43.53
30302;BME280;17111;52.130;5.028;2023-02-14T15:31:59;103222.81;;;19.83;44.21